sensor_id;sensor_type;location;lat;lon;timestamp;temperature;humidity
24017;DHT22;12222;50.090;19.702;2022-12-07T00:02:34;1.80;99.90
24017;DHT22;12222;50.090;19.702;2022-12-07T00:07:36;1.80;99.90
24017;DHT22;12222;50.090;19.702;2022-12-07T00:12:38;1.80;99.90
24017;DHT22;12222;50.090;19.702;2022-12-07T00:17:40;1.90;99.90
24017;DHT22;12222;50.090;19.702;2022-12-07T00:22:42;1.80;99.90
24017;DHT22;12222;50.090;19.702;2022-12-07T00:27:44;1.80;99.90
24017;DHT22;12222;50.090;19.702;2022-12-07T00:32:45;1.80;99.90
24017;DHT22;12222;50.090;19.702;2022-12-07T00:37:47;1.80;99.90
24017;DHT22;12222;50.090;19.702;2022-12-07T00:42:49;1.80;99.90
24017;DHT22;12222;50.090;19.702;2022-12-07T00:47:51;1.80;99.90
24017;DHT22;12222;50.090;19.702;2022-12-07T00:52:53;1.80;99.90
24017;DHT22;12222;50.090;19.702;2022-12-07T00:57:55;1.90;99.90
24017;DHT22;12222;50.090;19.702;2022-12-07T01:02:56;1.90;99.90
24017;DHT22;12222;50.090;19.702;2022-12-07T01:07:58;1.90;99.90
24017;DHT22;12222;50.090;19.702;2022-12-07T01:13:00;1.90;99.90
24017;DHT22;12222;50.090;19.702;2022-12-07T01:18:02;1.80;99.90
24017;DHT22;12222;50.090;19.702;2022-12-07T01:23:04;1.80;99.90
24017;DHT22;12222;50.090;19.702;2022-12-07T01:28:06;1.80;99.90
24017;DHT22;12222;50.090;19.702;2022-12-07T01:33:08;1.70;99.90
24017;DHT22;12222;50.090;19.702;2022-12-07T01:38:10;1.50;99.90
24017;DHT22;12222;50.090;19.702;2022-12-07T01:43:19;1.50;99.90
24017;DHT22;12222;50.090;19.702;2022-12-07T01:48:37;1.50;99.90
24017;DHT22;12222;50.090;19.702;2022-12-07T01:53:43;1.40;99.90
24017;DHT22;12222;50.090;19.702;2022-12-07T01:58:47;1.30;99.90
24017;DHT22;12222;50.090;19.702;2022-12-07T02:03:49;1.30;99.90
24017;DHT22;12222;50.090;19.702;2022-12-07T02:08:52;1.30;99.90
24017;DHT22;12222;50.090;19.702;2022-12-07T02:13:54;1.30;99.90
24017;DHT22;12222;50.090;19.702;2022-12-07T02:24:30;1.30;99.90
24017;DHT22;12222;50.090;19.702;2022-12-07T02:29:50;1.30;99.90
24017;DHT22;12222;50.090;19.702;2022-12-07T02:35:05;1.20;99.90
24017;DHT22;12222;50.090;19.702;2022-12-07T02:40:19;1.30;99.90
24017;DHT22;12222;50.090;19.702;2022-12-07T02:45:25;1.40;99.90
24017;DHT22;12222;50.090;19.702;2022-12-07T02:50:29;1.30;99.90
24017;DHT22;12222;50.090;19.702;2022-12-07T02:55:37;1.40;99.90
24017;DHT22;12222;50.090;19.702;2022-12-07T03:06:31;1.30;99.90
24017;DHT22;12222;50.090;19.702;2022-12-07T03:11:46;1.30;99.90
24017;DHT22;12222;50.090;19.702;2022-12-07T03:17:18;1.30;99.90
24017;DHT22;12222;50.090;19.702;2022-12-07T03:22:21;1.20;99.90
24017;DHT22;12222;50.090;19.702;2022-12-07T03:27:37;1.20;99.90
24017;DHT22;12222;50.090;19.702;2022-12-07T03:33:03;1.30;99.90
24017;DHT22;12222;50.090;19.702;2022-12-07T03:38:23;1.50;99.90
24017;DHT22;12222;50.090;19.702;2022-12-07T03:43:31;1.70;99.90
24017;DHT22;12222;50.090;19.702;2022-12-07T03:48:44;1.80;99.90
24017;DHT22;12222;50.090;19.702;2022-12-07T03:53:57;1.80;99.90
24017;DHT22;12222;50.090;19.702;2022-12-07T03:59:00;1.90;99.90
24017;DHT22;12222;50.090;19.702;2022-12-07T04:04:02;1.90;99.90
24017;DHT22;12222;50.090;19.702;2022-12-07T04:09:04;1.90;99.90
24017;DHT22;12222;50.090;19.702;2022-12-07T04:14:06;1.80;99.90
24017;DHT22;12222;50.090;19.702;2022-12-07T04:19:21;1.80;99.90
24017;DHT22;12222;50.090;19.702;2022-12-07T04:24:24;1.80;99.90
24017;DHT22;12222;50.090;19.702;2022-12-07T04:29:26;1.70;99.90
24017;DHT22;12222;50.090;19.702;2022-12-07T04:34:28;1.60;99.90
24017;DHT22;12222;50.090;19.702;2022-12-07T04:39:32;1.60;99.90
24017;DHT22;12222;50.090;19.702;2022-12-07T04:44:34;1.70;99.90
24017;DHT22;12222;50.090;19.702;2022-12-07T04:49:36;1.60;99.90
24017;DHT22;12222;50.090;19.702;2022-12-07T04:54:38;1.60;99.90
24017;DHT22;12222;50.090;19.702;2022-12-07T04:59:39;1.60;99.90
24017;DHT22;12222;50.090;19.702;2022-12-07T05:04:46;1.50;99.90
24017;DHT22;12222;50.090;19.702;2022-12-07T05:09:48;1.60;99.90
24017;DHT22;12222;50.090;19.702;2022-12-07T05:14:50;1.60;99.90
24017;DHT22;12222;50.090;19.702;2022-12-07T05:19:51;1.50;99.90
24017;DHT22;12222;50.090;19.702;2022-12-07T05:24:56;1.50;99.90
24017;DHT22;12222;50.090;19.702;2022-12-07T05:29:58;1.60;99.90
24017;DHT22;12222;50.090;19.702;2022-12-07T05:35:00;1.60;99.90
24017;DHT22;12222;50.090;19.702;2022-12-07T05:40:03;1.60;99.90
24017;DHT22;12222;50.090;19.702;2022-12-07T05:45:07;1.60;99.90
24017;DHT22;12222;50.090;19.702;2022-12-07T05:50:09;1.60;99.90
24017;DHT22;12222;50.090;19.702;2022-12-07T05:55:11;1.50;99.90
24017;DHT22;12222;50.090;19.702;2022-12-07T06:00:13;1.50;99.90
24017;DHT22;12222;50.090;19.702;2022-12-07T06:05:15;1.50;99.90
24017;DHT22;12222;50.090;19.702;2022-12-07T06:10:17;1.50;99.90
24017;DHT22;12222;50.090;19.702;2022-12-07T06:15:19;1.50;99.90
24017;DHT22;12222;50.090;19.702;2022-12-07T06:20:21;1.50;99.90
24017;DHT22;12222;50.090;19.702;2022-12-07T06:25:22;1.40;99.90
24017;DHT22;12222;50.090;19.702;2022-12-07T06:30:24;1.40;99.90
24017;DHT22;12222;50.090;19.702;2022-12-07T06:35:26;1.30;99.90
24017;DHT22;12222;50.090;19.702;2022-12-07T06:40:28;1.30;99.90
24017;DHT22;12222;50.090;19.702;2022-12-07T06:45:30;1.30;99.90
24017;DHT22;12222;50.090;19.702;2022-12-07T06:50:32;1.30;99.90
24017;DHT22;12222;50.090;19.702;2022-12-07T06:55:34;1.30;99.90
24017;DHT22;12222;50.090;19.702;2022-12-07T07:00:35;1.30;99.90
24017;DHT22;12222;50.090;19.702;2022-12-07T07:05:37;1.30;99.90
24017;DHT22;12222;50.090;19.702;2022-12-07T07:10:39;1.40;99.90
24017;DHT22;12222;50.090;19.702;2022-12-07T07:15:41;1.30;99.90
24017;DHT22;12222;50.090;19.702;2022-12-07T07:20:43;1.40;99.90
24017;DHT22;12222;50.090;19.702;2022-12-07T07:25:46;1.50;99.90
24017;DHT22;12222;50.090;19.702;2022-12-07T07:30:48;1.50;99.90
24017;DHT22;12222;50.090;19.702;2022-12-07T07:35:50;1.50;99.90
24017;DHT22;12222;50.090;19.702;2022-12-07T07:40:52;1.40;99.90
24017;DHT22;12222;50.090;19.702;2022-12-07T07:45:53;1.50;99.90
24017;DHT22;12222;50.090;19.702;2022-12-07T07:50:55;1.60;99.90
24017;DHT22;12222;50.090;19.702;2022-12-07T07:55:57;1.60;99.90
24017;DHT22;12222;50.090;19.702;2022-12-07T08:01:07;1.60;99.90
24017;DHT22;12222;50.090;19.702;2022-12-07T08:06:09;1.60;99.90
24017;DHT22;12222;50.090;19.702;2022-12-07T08:11:11;1.60;99.90
24017;DHT22;12222;50.090;19.702;2022-12-07T08:16:13;1.60;99.90
24017;DHT22;12222;50.090;19.702;2022-12-07T08:21:16;1.60;99.90
24017;DHT22;12222;50.090;19.702;2022-12-07T08:26:19;1.50;99.90
24017;DHT22;12222;50.090;19.702;2022-12-07T08:31:20;1.60;99.90
24017;DHT22;12222;50.090;19.702;2022-12-07T08:36:23;1.60;99.90
24017;DHT22;12222;50.090;19.702;2022-12-07T08:41:25;1.70;99.90
24017;DHT22;12222;50.090;19.702;2022-12-07T08:46:48;1.80;99.90
24017;DHT22;12222;50.090;19.702;2022-12-07T08:51:52;1.80;99.90
24017;DHT22;12222;50.090;19.702;2022-12-07T08:56:55;1.80;99.90
24017;DHT22;12222;50.090;19.702;2022-12-07T09:02:00;1.80;99.90
24017;DHT22;12222;50.090;19.702;2022-12-07T09:07:02;2.00;99.90
24017;DHT22;12222;50.090;19.702;2022-12-07T09:12:05;2.10;99.90
24017;DHT22;12222;50.090;19.702;2022-12-07T09:17:09;2.20;99.90
24017;DHT22;12222;50.090;19.702;2022-12-07T09:22:11;2.10;99.90
24017;DHT22;12222;50.090;19.702;2022-12-07T09:27:13;2.10;99.90
24017;DHT22;12222;50.090;19.702;2022-12-07T09:32:15;2.10;99.90
24017;DHT22;12222;50.090;19.702;2022-12-07T09:37:17;2.10;99.90
24017;DHT22;12222;50.090;19.702;2022-12-07T09:42:34;2.10;99.90
24017;DHT22;12222;50.090;19.702;2022-12-07T09:47:36;2.10;99.90
24017;DHT22;12222;50.090;19.702;2022-12-07T09:52:38;2.10;99.90
24017;DHT22;12222;50.090;19.702;2022-12-07T09:57:40;2.00;99.90
24017;DHT22;12222;50.090;19.702;2022-12-07T10:02:46;2.10;99.90
24017;DHT22;12222;50.090;19.702;2022-12-07T10:07:49;2.30;99.90
24017;DHT22;12222;50.090;19.702;2022-12-07T10:13:04;2.30;99.90
24017;DHT22;12222;50.090;19.702;2022-12-07T10:18:27;2.30;99.90
24017;DHT22;12222;50.090;19.702;2022-12-07T10:23:29;2.40;99.90
24017;DHT22;12222;50.090;19.702;2022-12-07T10:28:35;2.40;99.90
24017;DHT22;12222;50.090;19.702;2022-12-07T10:33:58;2.50;99.90
24017;DHT22;12222;50.090;19.702;2022-12-07T10:39:14;2.70;99.90
24017;DHT22;12222;50.090;19.702;2022-12-07T10:44:21;2.80;99.90
24017;DHT22;12222;50.090;19.702;2022-12-07T11:00:13;3.00;99.90
24017;DHT22;12222;50.090;19.702;2022-12-07T11:21:55;3.20;99.90
24017;DHT22;12222;50.090;19.702;2022-12-07T11:27:32;3.30;99.90
24017;DHT22;12222;50.090;19.702;2022-12-07T11:33:04;3.50;99.90
24017;DHT22;12222;50.090;19.702;2022-12-07T11:38:14;3.50;99.90
24017;DHT22;12222;50.090;19.702;2022-12-07T11:43:24;3.30;99.90
24017;DHT22;12222;50.090;19.702;2022-12-07T11:48:33;3.20;99.90
24017;DHT22;12222;50.090;19.702;2022-12-07T11:53:44;3.20;99.90
24017;DHT22;12222;50.090;19.702;2022-12-07T11:58:55;3.20;99.90
24017;DHT22;12222;50.090;19.702;2022-12-07T12:04:07;3.30;99.90
24017;DHT22;12222;50.090;19.702;2022-12-07T12:09:29;3.40;99.90
24017;DHT22;12222;50.090;19.702;2022-12-07T12:14:54;3.40;99.90
24017;DHT22;12222;50.090;19.702;2022-12-07T12:25:28;3.30;99.90
24017;DHT22;12222;50.090;19.702;2022-12-07T12:30:38;3.40;99.90
24017;DHT22;12222;50.090;19.702;2022-12-07T12:35:41;3.40;99.90
24017;DHT22;12222;50.090;19.702;2022-12-07T12:40:43;3.40;99.90
24017;DHT22;12222;50.090;19.702;2022-12-07T12:51:36;3.30;99.90
24017;DHT22;12222;50.090;19.702;2022-12-07T13:07:12;3.70;99.90
24017;DHT22;12222;50.090;19.702;2022-12-07T13:12:16;4.10;99.90
24017;DHT22;12222;50.090;19.702;2022-12-07T13:22:40;3.60;99.90
24017;DHT22;12222;50.090;19.702;2022-12-07T13:27:50;3.60;99.90
24017;DHT22;12222;50.090;19.702;2022-12-07T13:32:58;3.50;99.90
24017;DHT22;12222;50.090;19.702;2022-12-07T13:38:04;3.40;99.90
24017;DHT22;12222;50.090;19.702;2022-12-07T13:43:14;3.30;99.90
24017;DHT22;12222;50.090;19.702;2022-12-07T13:48:36;3.20;99.90
24017;DHT22;12222;50.090;19.702;2022-12-07T13:53:48;3.20;99.90
24017;DHT22;12222;50.090;19.702;2022-12-07T13:58:50;3.10;99.90
24017;DHT22;12222;50.090;19.702;2022-12-07T14:03:52;3.00;99.90
24017;DHT22;12222;50.090;19.702;2022-12-07T14:09:29;3.00;99.90
24017;DHT22;12222;50.090;19.702;2022-12-07T14:14:32;3.10;99.90
24017;DHT22;12222;50.090;19.702;2022-12-07T14:19:49;3.10;99.90
24017;DHT22;12222;50.090;19.702;2022-12-07T14:25:21;3.00;99.90
24017;DHT22;12222;50.090;19.702;2022-12-07T14:30:20;3.00;99.90
24017;DHT22;12222;50.090;19.702;2022-12-07T14:35:22;3.00;99.90
24017;DHT22;12222;50.090;19.702;2022-12-07T14:40:27;3.00;99.90
24017;DHT22;12222;50.090;19.702;2022-12-07T14:45:29;2.90;99.90
24017;DHT22;12222;50.090;19.702;2022-12-07T14:50:36;2.90;99.90
24017;DHT22;12222;50.090;19.702;2022-12-07T14:55:39;2.90;99.90
24017;DHT22;12222;50.090;19.702;2022-12-07T15:00:41;2.90;99.90
24017;DHT22;12222;50.090;19.702;2022-12-07T15:05:44;2.90;99.90
24017;DHT22;12222;50.090;19.702;2022-12-07T15:10:46;2.90;99.90
24017;DHT22;12222;50.090;19.702;2022-12-07T15:15:49;2.90;99.90
24017;DHT22;12222;50.090;19.702;2022-12-07T15:20:51;2.90;99.90
24017;DHT22;12222;50.090;19.702;2022-12-07T15:25:53;2.90;99.90
24017;DHT22;12222;50.090;19.702;2022-12-07T15:30:55;2.90;99.90
24017;DHT22;12222;50.090;19.702;2022-12-07T15:35:59;2.90;99.90
24017;DHT22;12222;50.090;19.702;2022-12-07T15:41:00;2.80;99.90
24017;DHT22;12222;50.090;19.702;2022-12-07T15:46:02;2.80;99.90
24017;DHT22;12222;50.090;19.702;2022-12-07T15:51:06;2.70;99.90
24017;DHT22;12222;50.090;19.702;2022-12-07T15:56:08;2.70;99.90
24017;DHT22;12222;50.090;19.702;2022-12-07T16:01:16;2.70;99.90
24017;DHT22;12222;50.090;19.702;2022-12-07T16:06:18;2.70;99.90
24017;DHT22;12222;50.090;19.702;2022-12-07T16:11:21;2.80;99.90
24017;DHT22;12222;50.090;19.702;2022-12-07T16:16:24;2.70;99.90
24017;DHT22;12222;50.090;19.702;2022-12-07T16:21:25;2.70;99.90
24017;DHT22;12222;50.090;19.702;2022-12-07T16:26:27;2.80;99.90
24017;DHT22;12222;50.090;19.702;2022-12-07T16:31:29;2.80;99.90
24017;DHT22;12222;50.090;19.702;2022-12-07T16:36:31;2.80;99.90
24017;DHT22;12222;50.090;19.702;2022-12-07T16:41:53;2.80;99.90
24017;DHT22;12222;50.090;19.702;2022-12-07T16:46:55;2.80;99.90
24017;DHT22;12222;50.090;19.702;2022-12-07T16:51:57;2.80;99.90
24017;DHT22;12222;50.090;19.702;2022-12-07T16:57:19;2.70;99.90
24017;DHT22;12222;50.090;19.702;2022-12-07T17:02:24;2.70;99.90
24017;DHT22;12222;50.090;19.702;2022-12-07T17:07:26;2.60;99.90
24017;DHT22;12222;50.090;19.702;2022-12-07T17:12:28;2.50;99.90
24017;DHT22;12222;50.090;19.702;2022-12-07T17:17:30;2.40;99.90
24017;DHT22;12222;50.090;19.702;2022-12-07T17:22:32;2.50;99.90
24017;DHT22;12222;50.090;19.702;2022-12-07T17:27:34;2.50;99.90
24017;DHT22;12222;50.090;19.702;2022-12-07T17:32:36;2.40;99.90
24017;DHT22;12222;50.090;19.702;2022-12-07T17:37:38;2.30;99.90
24017;DHT22;12222;50.090;19.702;2022-12-07T17:42:40;2.10;99.90
24017;DHT22;12222;50.090;19.702;2022-12-07T17:47:47;2.10;99.90
24017;DHT22;12222;50.090;19.702;2022-12-07T17:52:49;2.10;99.90
24017;DHT22;12222;50.090;19.702;2022-12-07T17:58:09;2.20;99.90
24017;DHT22;12222;50.090;19.702;2022-12-07T18:03:11;2.20;99.90
24017;DHT22;12222;50.090;19.702;2022-12-07T18:08:13;2.20;99.90
24017;DHT22;12222;50.090;19.702;2022-12-07T18:13:15;2.30;99.90
24017;DHT22;12222;50.090;19.702;2022-12-07T18:18:36;2.30;99.90
24017;DHT22;12222;50.090;19.702;2022-12-07T18:23:39;2.30;99.90
24017;DHT22;12222;50.090;19.702;2022-12-07T18:28:42;2.40;99.90
24017;DHT22;12222;50.090;19.702;2022-12-07T18:33:44;2.40;99.90
24017;DHT22;12222;50.090;19.702;2022-12-07T18:38:47;2.40;99.90
24017;DHT22;12222;50.090;19.702;2022-12-07T18:43:49;2.40;99.90
24017;DHT22;12222;50.090;19.702;2022-12-07T18:48:51;2.40;99.90
24017;DHT22;12222;50.090;19.702;2022-12-07T18:53:55;2.30;99.90
24017;DHT22;12222;50.090;19.702;2022-12-07T18:58:59;2.40;99.90
24017;DHT22;12222;50.090;19.702;2022-12-07T19:04:20;2.40;99.90
24017;DHT22;12222;50.090;19.702;2022-12-07T19:09:22;2.40;99.90
24017;DHT22;12222;50.090;19.702;2022-12-07T19:14:30;2.40;99.90
24017;DHT22;12222;50.090;19.702;2022-12-07T19:19:43;2.40;99.90
24017;DHT22;12222;50.090;19.702;2022-12-07T19:24:48;2.50;99.90
24017;DHT22;12222;50.090;19.702;2022-12-07T19:29:51;2.50;99.90
24017;DHT22;12222;50.090;19.702;2022-12-07T19:34:56;2.50;99.90
24017;DHT22;12222;50.090;19.702;2022-12-07T19:39:58;2.40;99.90
24017;DHT22;12222;50.090;19.702;2022-12-07T19:45:01;2.40;99.90
24017;DHT22;12222;50.090;19.702;2022-12-07T19:50:04;2.50;99.90
24017;DHT22;12222;50.090;19.702;2022-12-07T19:55:07;2.50;99.90
24017;DHT22;12222;50.090;19.702;2022-12-07T20:00:09;2.50;99.90
24017;DHT22;12222;50.090;19.702;2022-12-07T20:05:11;2.60;99.90
24017;DHT22;12222;50.090;19.702;2022-12-07T20:10:13;2.60;99.90
24017;DHT22;12222;50.090;19.702;2022-12-07T20:15:16;2.60;99.90
24017;DHT22;12222;50.090;19.702;2022-12-07T20:20:17;2.60;99.90
24017;DHT22;12222;50.090;19.702;2022-12-07T20:25:19;2.60;99.90
24017;DHT22;12222;50.090;19.702;2022-12-07T20:30:22;2.60;99.90
24017;DHT22;12222;50.090;19.702;2022-12-07T20:35:24;2.60;99.90
24017;DHT22;12222;50.090;19.702;2022-12-07T20:40:26;2.60;99.90
24017;DHT22;12222;50.090;19.702;2022-12-07T20:45:28;2.60;99.90
24017;DHT22;12222;50.090;19.702;2022-12-07T20:50:32;2.70;99.90
24017;DHT22;12222;50.090;19.702;2022-12-07T20:55:42;2.60;99.90
24017;DHT22;12222;50.090;19.702;2022-12-07T21:00:44;2.60;99.90
24017;DHT22;12222;50.090;19.702;2022-12-07T21:05:46;2.60;99.90
24017;DHT22;12222;50.090;19.702;2022-12-07T21:10:51;2.60;99.90
24017;DHT22;12222;50.090;19.702;2022-12-07T21:15:53;2.60;99.90
24017;DHT22;12222;50.090;19.702;2022-12-07T21:21:00;2.60;99.90
24017;DHT22;12222;50.090;19.702;2022-12-07T21:26:20;2.70;99.90
24017;DHT22;12222;50.090;19.702;2022-12-07T21:31:23;2.70;99.90
24017;DHT22;12222;50.090;19.702;2022-12-07T21:36:25;2.70;99.90
24017;DHT22;12222;50.090;19.702;2022-12-07T21:41:30;2.80;99.90
24017;DHT22;12222;50.090;19.702;2022-12-07T21:46:32;2.80;99.90
24017;DHT22;12222;50.090;19.702;2022-12-07T21:51:35;2.80;99.90
24017;DHT22;12222;50.090;19.702;2022-12-07T21:56:40;2.80;99.90
24017;DHT22;12222;50.090;19.702;2022-12-07T22:01:43;2.80;99.90
24017;DHT22;12222;50.090;19.702;2022-12-07T22:06:48;2.80;99.90
24017;DHT22;12222;50.090;19.702;2022-12-07T22:11:50;2.80;99.90
24017;DHT22;12222;50.090;19.702;2022-12-07T22:16:52;2.80;99.90
24017;DHT22;12222;50.090;19.702;2022-12-07T22:21:54;2.80;99.90
24017;DHT22;12222;50.090;19.702;2022-12-07T22:26:56;2.80;99.90
24017;DHT22;12222;50.090;19.702;2022-12-07T22:31:58;2.90;99.90
24017;DHT22;12222;50.090;19.702;2022-12-07T22:37:00;2.80;99.90
24017;DHT22;12222;50.090;19.702;2022-12-07T22:42:01;2.90;99.90
24017;DHT22;12222;50.090;19.702;2022-12-07T22:47:03;2.90;99.90
24017;DHT22;12222;50.090;19.702;2022-12-07T22:52:06;2.90;99.90
24017;DHT22;12222;50.090;19.702;2022-12-07T22:57:08;2.90;99.90
24017;DHT22;12222;50.090;19.702;2022-12-07T23:02:09;2.90;99.90
24017;DHT22;12222;50.090;19.702;2022-12-07T23:07:11;2.90;99.90
24017;DHT22;12222;50.090;19.702;2022-12-07T23:12:13;2.90;99.90
24017;DHT22;12222;50.090;19.702;2022-12-07T23:17:34;2.90;99.90
24017;DHT22;12222;50.090;19.702;2022-12-07T23:22:36;2.90;99.90
24017;DHT22;12222;50.090;19.702;2022-12-07T23:27:38;2.90;99.90
24017;DHT22;12222;50.090;19.702;2022-12-07T23:32:40;2.90;99.90
24017;DHT22;12222;50.090;19.702;2022-12-07T23:37:42;2.90;99.90
24017;DHT22;12222;50.090;19.702;2022-12-07T23:42:43;2.90;99.90
24017;DHT22;12222;50.090;19.702;2022-12-07T23:47:45;2.90;99.90
24017;DHT22;12222;50.090;19.702;2022-12-07T23:52:47;2.90;99.90
24017;DHT22;12222;50.090;19.702;2022-12-07T23:57:49;2.80;99.90
